Glenwood Plt, Maine
Current Conditions -  °F | °C
As of 12:41 AM on Thursday 23 Oct 2014 (Local Time) from KHUL Reporting Station
Light Rain Light Rain  
Wind Chill: 39°   Ceiling: 1800
Heat Index: 44°   Visibility: 9mi
Dew Point: 40°   Wind: 10mph
Humidity: 85%   Direction: 40°NE
Pressure: 30.21"   Gusts: NA
Location:  45.7877°N, 68.0764°W
Report Text: KHUL 230441Z AUTO 04009KT 9SM -RA BKN018 OVC070 07/04 A3021 RMK AO2 RAB0359 P0000 T00670044
Loading
Personal Weather Stations






























Interactive Weather Map
Tropical Storm Tracking
New forecast layout! Learn more

10-Day Weather Forecast

Advertisements
Track Severe Weather on mobile